Pagrindinis puslapis
METAR-TAF:

METAR-TAF

Oro uostai :

Jaroslavlis, Rusija

platuma: 57-33-38N, ilguma: 040-09-27E, Aukštis: 87 m

Dabartinis oras

Ataskaita buvo paskelbta 33 minutes, ne 11:30 UTC
Vėjas 8 kt iš Rytų/Šiaurės Rytų
Temperatūra 14°C
Drėgmė 55%
Slėgis 1016 hPa
Matomumas 10 km arba daugiau
Su prošvaistėmis ne aukštis 5000 ft, Liūtiniai kamuoliniai debesys.

METAR: UUDL 011130Z 06004MPS 9999 BKN050CB 14/05 Q1016 R05/010060 NOSIG RMK QFE754

Laikas: 15:03 (12:03 UTC)

Prognozė

Ataskaita buvo paskelbta 1 valandą ir 3 minutes, ne 11:00 UTC
Prognozė galioja nuo 01 metu 12 UTC su 02 metu 12 UTC
Vėjas 6 kt iš Šiaurės/Šiaurės Rytų su gūsio iki 16 kt
Matomumas 10 km arba daugiau
Su prošvaistėmis ne aukštis 4000 ft
Laikinai
nuo 01 metu 12 UTC su 01 metu 17 UTC
Vėjas 16 kt iš Rytų/Šiaurės Rytų su gūsio iki 27 kt
Matomumas: 6000 m
Su prošvaistėmis ne aukštis 1600 ft, Liūtiniai kamuoliniai debesys.
lietus

TAF: UUDL 011100Z 0112/0212 03003G08MPS 9999 BKN040 TX15/0112Z TN06/0201Z TEMPO 0112/0117 06008G14MPS 6000 -SHRA BKN016CB

Orai ataskaitas ir orų prognozės (METAR, TAF).

turimą stotys yra geltonos ir raudonos taškus žemėlapyje.

Perkelti pele per norėdami pamatyti stoties vardą.

Tada spustelėkite, norėdami matyti oro stebėjimo ir prognozės.

Norėdami pakeisti žemėlapį: spustelėkite ant žalios mygtukų su juodo kryžiaus žemyn,; žalią mygtuką su brūkšneliu, jei norite nutolinti; arba žalių rodyklių gretimoms žemėlapius.


METAR-TAF: